• Join FlightAware (Why Join?)
  • Login
  • US Flag GB Flag 
10:03 EDT


 

Airport Tracker/Info


-or-


 

Live Flight TrackerFlight Track Log ✈ N830QS ✈ 03-Jul-2013 ✈ KAPF - MMUN / CUN

Flight Track Log - Related Links

Times and Time Zones

All times are in EDT time to prevent confusion due to time zone crossing. See the N830QS flight status page for this flight to view local times or setup timezone preferences in your user account.

Time Position Orientation Groundspeed Altitude Reporting Facility
EDT Latitude Longitude Course Direction KTS MPH feet Rate Location/Type
15:31 26.1033 -81.6800 153° Southeast 217 250 3,800  Level Miami Center
15:32 26.0528 -81.6897 190° South 232 267 5,900 2,460 Climbing Miami Center
15:33 25.9869 -81.7264 207° Southwest 255 293 8,800 3,000 Climbing Miami Center
15:34 25.9186 -81.7675 208° Southwest 272 313 12,000 3,060 Climbing Miami Center
15:35 25.8464 -81.8058 206° Southwest 287 330 15,000 3,000 Climbing Miami Center
15:36 25.5772 -81.5873 153° Southeast  Level FlightAware Approximate
15:36 25.7792 -81.8769 224° Southwest 302 348 18,100  Level Miami Center
15:37 25.4840 -81.5355 153° Southeast  Level FlightAware Approximate
15:37 25.7308 -81.9464 232° Southwest 319 367 21,300  Level Miami Center
15:38 25.6619 -82.0056 218° Southwest 319 367 23,000 840 Climbing Miami Center
15:39 25.5825 -82.0692 216° Southwest 335 386 23,000 720 Level Miami Center
15:40 25.5008 -82.1392 218° Southwest 357 411 24,500 1,380 Climbing Miami Center
15:41 25.4269 -82.2164 223° Southwest 371 427 25,800 1,080 Climbing Miami Center
15:42 25.3511 -82.2933 223° Southwest 371 427 26,700 600 Climbing Miami Center
15:43 25.2711 -82.3681 220° Southwest 371 427 27,000 300 Climbing Miami Center
15:44 25.1728 -82.4231 207° Southwest 390 449 27,400 1,140 Climbing Miami Center
15:45 25.0747 -82.4758 206° Southwest 390 449 29,300 1,800 Climbing Miami Center
15:46 24.9811 -82.5289 207° Southwest 395 455 31,000 1,680 Climbing Miami Center
15:47 24.8872 -82.5794 206° Southwest 395 455 32,700 1,680 Climbing Miami Center
15:48 24.7914 -82.6300 206° Southwest 390 449 34,400 1,500 Climbing Miami Center
15:49 24.6994 -82.6806 207° Southwest 385 443 35,800 1,560 Climbing Miami Center
15:50 24.6058 -82.7286 205° Southwest 374 430 37,600 1,560 Climbing Miami Center
15:51 24.5161 -82.7792 207° Southwest 368 423 39,000 1,200 Climbing Miami Center
15:52 24.4267 -82.8250 205° Southwest 368 423 40,000 480 Climbing Miami Center
15:53 24.3286 -82.8772 206° Southwest 380 437 40,000  Level Miami Center
15:54 24.2261 -82.9314 206° Southwest 397 457 40,000  Level Miami Center
15:56 24.1197 -82.9696 206° Southwest  Level FlightAware Approximate
16:03 23.7547 -83.5761 244° Southwest  Level FlightAware Approximate
16:04 23.7110 -83.6721 244° Southwest  Level FlightAware Approximate
16:05 23.6673 -83.7680 244° Southwest  Level FlightAware Approximate
16:06 23.6235 -83.8639 244° Southwest  Level FlightAware Approximate
16:07 23.5796 -83.9596 243° Southwest  Level FlightAware Approximate
16:08 23.5357 -84.0554 243° Southwest  Level FlightAware Approximate
16:09 23.4918 -84.1510 243° Southwest  Level FlightAware Approximate
16:10 23.4477 -84.2466 243° Southwest  Level FlightAware Approximate
16:11 23.4037 -84.3421 243° Southwest  Level FlightAware Approximate
16:12 23.3609 -84.4383 244° Southwest  Level FlightAware Approximate
16:13 23.3182 -84.5345 244° Southwest  Level FlightAware Approximate
16:14 23.2755 -84.6307 244° Southwest  Level FlightAware Approximate
16:15 23.2327 -84.7268 244° Southwest  Level FlightAware Approximate
16:16 23.1820 -84.8160 219° Southwest  Level FlightAware Approximate
16:17 23.1061 -84.8837 219° Southwest  Level FlightAware Approximate
16:18 23.0302 -84.9512 219° Southwest  Level FlightAware Approximate
16:19 22.9542 -85.0186 219° Southwest  Level FlightAware Approximate
16:20 22.8788 -85.0867 221° Southwest  Level FlightAware Approximate
16:21 22.8049 -85.1567 221° Southwest  Level FlightAware Approximate
16:22 22.7309 -85.2266 221° Southwest  Level FlightAware Approximate
16:23 22.6569 -85.2964 221° Southwest  Level FlightAware Approximate
16:24 22.5944 -85.3718 221° Southwest  Level FlightAware Approximate
16:25 22.5200 -85.4411 221° Southwest  Level FlightAware Approximate
16:26 22.4455 -85.5102 221° Southwest  Level FlightAware Approximate
16:27 22.3710 -85.5793 221° Southwest  Level FlightAware Approximate
16:28 22.2981 -85.6502 220° Southwest  Level FlightAware Approximate
16:29 22.2231 -85.7185 220° Southwest  Level FlightAware Approximate
16:30 22.1480 -85.7867 220° Southwest  Level FlightAware Approximate
16:31 22.0730 -85.8549 220° Southwest  Level FlightAware Approximate
16:32 21.9980 -85.9231 220° Southwest  Level FlightAware Approximate
16:33 21.9240 -85.9926 223° Southwest  Level FlightAware Approximate
16:34 21.8522 -86.0646 223° Southwest  Level FlightAware Approximate
16:35 21.7802 -86.1365 223° Southwest  Level FlightAware Approximate
16:36 21.7084 -86.2084 223° Southwest  Level FlightAware Approximate
16:37 21.6365 -86.2802 223° Southwest  Level FlightAware Approximate
16:38 21.5646 -86.3521 223° Southwest  Level FlightAware Approximate
16:39 21.4925 -86.4235 220° Southwest  Level FlightAware Approximate
16:40 21.4173 -86.4912 220° Southwest  Level FlightAware Approximate
16:41 21.3421 -86.5588 220° Southwest  Level FlightAware Approximate
16:42 21.2740 -86.6346 227° Southwest  Level FlightAware Approximate
16:43 21.2036 -86.7065 205° Southwest  Level FlightAware Approximate
16:44 21.1280 -86.7721 223° Southwest  Level FlightAware Approximate
16:45 21.0529 -86.8395 215° Southwest  Level FlightAware Approximate
16:46 21.0167 -86.8667 215° Southwest  Level FlightAware Approximate
16:47 21.0365 -86.8771 215° Southwest  Level Estimated
16:48 21.0365 -86.8771 215° Southwest  Level Estimated
16:49 21.0365 -86.8771 215° Southwest  Level Estimated
16:50 21.0365 -86.8771 215° Southwest  Level Estimated
16:51 21.0365 -86.8771 215° Southwest  Level Estimated
16:52 21.0365 -86.8771 215° Southwest  Level Estimated
16:53 21.0365 -86.8771 215° Southwest  Level Estimated
16:54 21.0365 -86.8771 215° Southwest  Level Estimated
16:55 21.0365 -86.8771 215° Southwest  Level Estimated
16:56 21.0365 -86.8771 215° Southwest  Level Estimated
16:57 21.0365 -86.8771 215° Southwest  Level Estimated
16:58 21.0365 -86.8771 215° Southwest  Level Estimated
16:59 21.0365 -86.8771 215° Southwest  Level Estimated
17:00 21.0365 -86.8771 215° Southwest  Level Estimated